sensor_id;sensor_type;location;lat;lon;timestamp;pressure;altitude;pressure_sealevel;temperature;humidity
66880;BME280;53789;51.392;10.234;2023-04-08T00:00:10;98659.38;;;4.63;61.39
66880;BME280;53789;51.392;10.234;2023-04-08T00:00:31;98669.47;;;4.63;61.40
66880;BME280;53789;51.392;10.234;2023-04-08T00:00:51;98665.91;;;4.62;61.23
66880;BME280;53789;51.392;10.234;2023-04-08T00:01:11;98666.16;;;4.61;61.56
66880;BME280;53789;51.392;10.234;2023-04-08T00:01:32;98669.75;;;4.61;61.33
66880;BME280;53789;51.392;10.234;2023-04-08T00:01:52;98672.47;;;4.61;61.36
66880;BME280;53789;51.392;10.234;2023-04-08T00:02:12;98674.09;;;4.62;61.36
66880;BME280;53789;51.392;10.234;2023-04-08T00:02:33;98668.91;;;4.61;61.14
66880;BME280;53789;51.392;10.234;2023-04-08T00:02:53;98672.47;;;4.61;61.58
66880;BME280;53789;51.392;10.234;2023-04-08T00:03:13;98668.09;;;4.60;61.66
66880;BME280;53789;51.392;10.234;2023-04-08T00:03:33;98665.09;;;4.62;62.17
66880;BME280;53789;51.392;10.234;2023-04-08T00:03:54;98667.00;;;4.61;61.83
66880;BME280;53789;51.392;10.234;2023-04-08T00:04:14;98664.28;;;4.61;61.92
66880;BME280;53789;51.392;10.234;2023-04-08T00:04:34;98669.47;;;4.63;61.89
66880;BME280;53789;51.392;10.234;2023-04-08T00:04:55;98667.81;;;4.62;61.88
66880;BME280;53789;51.392;10.234;2023-04-08T00:05:15;98667.81;;;4.62;62.58
66880;BME280;53789;51.392;10.234;2023-04-08T00:05:35;98670.81;;;4.60;62.47
66880;BME280;53789;51.392;10.234;2023-04-08T00:05:56;98669.47;;;4.63;61.99
66880;BME280;53789;51.392;10.234;2023-04-08T00:06:16;98666.75;;;4.63;62.09
66880;BME280;53789;51.392;10.234;2023-04-08T00:06:36;98670.53;;;4.62;61.91
66880;BME280;53789;51.392;10.234;2023-04-08T00:06:56;98661.56;;;4.61;61.73
66880;BME280;53789;51.392;10.234;2023-04-08T00:07:17;98667.00;;;4.61;62.01
66880;BME280;53789;51.392;10.234;2023-04-08T00:07:37;98669.75;;;4.61;62.16
66880;BME280;53789;51.392;10.234;2023-04-08T00:07:57;98672.19;;;4.63;61.54
66880;BME280;53789;51.392;10.234;2023-04-08T00:08:18;98663.19;;;4.62;61.50
66880;BME280;53789;51.392;10.234;2023-04-08T00:08:38;98664.03;;;4.63;61.35
66880;BME280;53789;51.392;10.234;2023-04-08T00:08:58;98661.56;;;4.61;61.37
66880;BME280;53789;51.392;10.234;2023-04-08T00:09:19;98660.72;;;4.61;62.13
66880;BME280;53789;51.392;10.234;2023-04-08T00:09:39;98665.34;;;4.60;61.65
66880;BME280;53789;51.392;10.234;2023-04-08T00:09:59;98665.34;;;4.60;62.41
66880;BME280;53789;51.392;10.234;2023-04-08T00:10:20;98663.44;;;4.61;61.83
66880;BME280;53789;51.392;10.234;2023-04-08T00:10:40;98666.16;;;4.61;62.36
66880;BME280;53789;51.392;10.234;2023-04-08T00:11:00;98665.34;;;4.60;62.02
66880;BME280;53789;51.392;10.234;2023-04-08T00:11:21;98666.69;;;4.58;62.27
66880;BME280;53789;51.392;10.234;2023-04-08T00:11:41;98662.34;;;4.57;61.47
66880;BME280;53789;51.392;10.234;2023-04-08T00:12:01;98665.06;;;4.57;62.02
66880;BME280;53789;51.392;10.234;2023-04-08T00:12:21;98663.41;;;4.56;62.13
66880;BME280;53789;51.392;10.234;2023-04-08T00:12:42;98663.41;;;4.56;62.80
66880;BME280;53789;51.392;10.234;2023-04-08T00:13:02;98660.69;;;4.56;62.16
66880;BME280;53789;51.392;10.234;2023-04-08T00:13:22;98659.03;;;4.55;62.29
66880;BME280;53789;51.392;10.234;2023-04-08T00:13:43;98657.97;;;4.56;62.42
66880;BME280;53789;51.392;10.234;2023-04-08T00:14:03;98665.31;;;4.55;62.30
66880;BME280;53789;51.392;10.234;2023-04-08T00:14:24;98654.69;;;4.54;62.14
66880;BME280;53789;51.392;10.234;2023-04-08T00:14:44;98656.31;;;4.55;62.03
66880;BME280;53789;51.392;10.234;2023-04-08T00:15:05;98660.13;;;4.54;62.00
66880;BME280;53789;51.392;10.234;2023-04-08T00:15:26;98661.75;;;4.55;62.04
66880;BME280;53789;51.392;10.234;2023-04-08T00:15:46;98663.41;;;4.56;62.10
66880;BME280;53789;51.392;10.234;2023-04-08T00:16:06;98651.69;;;4.55;62.50
66880;BME280;53789;51.392;10.234;2023-04-08T00:16:27;98665.06;;;4.57;62.35
66880;BME280;53789;51.392;10.234;2023-04-08T00:16:47;98661.50;;;4.56;61.68
66880;BME280;53789;51.392;10.234;2023-04-08T00:17:07;98660.69;;;4.56;62.37
66880;BME280;53789;51.392;10.234;2023-04-08T00:17:27;98661.75;;;4.55;62.36
66880;BME280;53789;51.392;10.234;2023-04-08T00:17:48;98658.22;;;4.54;62.06
66880;BME280;53789;51.392;10.234;2023-04-08T00:18:08;98659.03;;;4.55;62.62
66880;BME280;53789;51.392;10.234;2023-04-08T00:18:28;98660.69;;;4.56;62.55
66880;BME280;53789;51.392;10.234;2023-04-08T00:18:49;98653.56;;;4.55;63.14
66880;BME280;53789;51.392;10.234;2023-04-08T00:19:09;98651.69;;;4.55;62.68
66880;BME280;53789;51.392;10.234;2023-04-08T00:19:29;98658.78;;;4.56;62.94
66880;BME280;53789;51.392;10.234;2023-04-08T00:19:50;98656.31;;;4.55;62.90
66880;BME280;53789;51.392;10.234;2023-04-08T00:20:10;98654.41;;;4.55;63.13
66880;BME280;53789;51.392;10.234;2023-04-08T00:20:31;98657.97;;;4.56;63.34
66880;BME280;53789;51.392;10.234;2023-04-08T00:20:51;98655.22;;;4.56;63.22
66880;BME280;53789;51.392;10.234;2023-04-08T00:21:11;98655.22;;;4.56;62.96
66880;BME280;53789;51.392;10.234;2023-04-08T00:21:32;98656.88;;;4.57;62.84
66880;BME280;53789;51.392;10.234;2023-04-08T00:21:52;98663.16;;;4.57;62.95
66880;BME280;53789;51.392;10.234;2023-04-08T00:22:12;98652.25;;;4.57;63.03
66880;BME280;53789;51.392;10.234;2023-04-08T00:22:34;98658.50;;;4.58;63.28
66880;BME280;53789;51.392;10.234;2023-04-08T00:22:54;98661.22;;;4.58;63.21
66880;BME280;53789;51.392;10.234;2023-04-08T00:23:15;98658.25;;;4.59;63.47
66880;BME280;53789;51.392;10.234;2023-04-08T00:23:35;98658.25;;;4.59;63.56
66880;BME280;53789;51.392;10.234;2023-04-08T00:23:55;98657.44;;;4.59;63.33
66880;BME280;53789;51.392;10.234;2023-04-08T00:24:16;98655.53;;;4.59;63.92
66880;BME280;53789;51.392;10.234;2023-04-08T00:24:36;98659.09;;;4.60;63.77
66880;BME280;53789;51.392;10.234;2023-04-08T00:24:57;98665.34;;;4.60;63.34
66880;BME280;53789;51.392;10.234;2023-04-08T00:25:17;98657.44;;;4.59;63.67
66880;BME280;53789;51.392;10.234;2023-04-08T00:25:38;98662.63;;;4.60;63.38
66880;BME280;53789;51.392;10.234;2023-04-08T00:25:58;98657.19;;;4.60;63.41
66880;BME280;53789;51.392;10.234;2023-04-08T00:26:18;98658.25;;;4.59;63.26
66880;BME280;53789;51.392;10.234;2023-04-08T00:26:39;98653.66;;;4.60;63.35
66880;BME280;53789;51.392;10.234;2023-04-08T00:26:59;98664.53;;;4.60;63.40
66880;BME280;53789;51.392;10.234;2023-04-08T00:27:19;98656.38;;;4.60;63.41
66880;BME280;53789;51.392;10.234;2023-04-08T00:27:40;98658.84;;;4.61;63.64
66880;BME280;53789;51.392;10.234;2023-04-08T00:28:00;98658.84;;;4.61;63.59
66880;BME280;53789;51.392;10.234;2023-04-08T00:28:20;98655.00;;;4.62;63.40
66880;BME280;53789;51.392;10.234;2023-04-08T00:28:41;98656.94;;;4.62;63.47
66880;BME280;53789;51.392;10.234;2023-04-08T00:29:01;98657.72;;;4.62;63.37
66880;BME280;53789;51.392;10.234;2023-04-08T00:29:21;98653.13;;;4.63;63.62
66880;BME280;53789;51.392;10.234;2023-04-08T00:29:42;98656.94;;;4.62;63.12
66880;BME280;53789;51.392;10.234;2023-04-08T00:30:02;98654.19;;;4.62;63.58
66880;BME280;53789;51.392;10.234;2023-04-08T00:30:22;98659.66;;;4.62;63.00
66880;BME280;53789;51.392;10.234;2023-04-08T00:30:43;98657.72;;;4.62;63.00
66880;BME280;53789;51.392;10.234;2023-04-08T00:31:03;98658.56;;;4.63;63.08
66880;BME280;53789;51.392;10.234;2023-04-08T00:31:23;98655.84;;;4.63;63.13
66880;BME280;53789;51.392;10.234;2023-04-08T00:31:44;98653.94;;;4.63;63.20
66880;BME280;53789;51.392;10.234;2023-04-08T00:32:04;98659.13;;;4.65;63.19
66880;BME280;53789;51.392;10.234;2023-04-08T00:32:25;98663.19;;;4.62;62.65
66880;BME280;53789;51.392;10.234;2023-04-08T00:32:45;98654.19;;;4.62;62.82
66880;BME280;53789;51.392;10.234;2023-04-08T00:33:06;98662.38;;;4.62;62.80
66880;BME280;53789;51.392;10.234;2023-04-08T00:33:26;98658.56;;;4.63;63.17
66880;BME280;53789;51.392;10.234;2023-04-08T00:33:46;98660.22;;;4.64;63.47
66880;BME280;53789;51.392;10.234;2023-04-08T00:34:06;98658.56;;;4.63;63.36
66880;BME280;53789;51.392;10.234;2023-04-08T00:34:27;98658.31;;;4.65;63.26
66880;BME280;53789;51.392;10.234;2023-04-08T00:34:47;98660.22;;;4.64;63.15
66880;BME280;53789;51.392;10.234;2023-04-08T00:35:08;98656.41;;;4.65;62.93
66880;BME280;53789;51.392;10.234;2023-04-08T00:35:28;98663.50;;;4.66;63.04
66880;BME280;53789;51.392;10.234;2023-04-08T00:35:48;98654.28;;;4.67;63.61
66880;BME280;53789;51.392;10.234;2023-04-08T00:36:09;98666.25;;;4.66;63.58
66880;BME280;53789;51.392;10.234;2023-04-08T00:36:29;98662.44;;;4.67;63.47
66880;BME280;53789;51.392;10.234;2023-04-08T00:36:49;98657.00;;;4.67;63.36
66880;BME280;53789;51.392;10.234;2023-04-08T00:37:09;98658.63;;;4.68;62.85
66880;BME280;53789;51.392;10.234;2023-04-08T00:37:30;98656.72;;;4.69;63.53
66880;BME280;53789;51.392;10.234;2023-04-08T00:37:50;98660.25;;;4.69;63.58
66880;BME280;53789;51.392;10.234;2023-04-08T00:38:10;98657.53;;;4.69;63.57
66880;BME280;53789;51.392;10.234;2023-04-08T00:38:31;98655.88;;;4.68;63.41
66880;BME280;53789;51.392;10.234;2023-04-08T00:38:51;98663.00;;;4.69;63.02
66880;BME280;53789;51.392;10.234;2023-04-08T00:39:12;98663.00;;;4.69;63.16
66880;BME280;53789;51.392;10.234;2023-04-08T00:39:32;98663.25;;;4.68;63.47
66880;BME280;53789;51.392;10.234;2023-04-08T00:39:52;98657.25;;;4.66;63.38
66880;BME280;53789;51.392;10.234;2023-04-08T00:40:12;98663.50;;;4.66;63.48
66880;BME280;53789;51.392;10.234;2023-04-08T00:40:33;98662.69;;;4.66;63.56
66880;BME280;53789;51.392;10.234;2023-04-08T00:40:54;98664.59;;;4.65;63.47
66880;BME280;53789;51.392;10.234;2023-04-08T00:41:14;98664.03;;;4.63;63.68
66880;BME280;53789;51.392;10.234;2023-04-08T00:41:34;98666.50;;;4.65;63.17
66880;BME280;53789;51.392;10.234;2023-04-08T00:41:55;98661.31;;;4.63;63.68
66880;BME280;53789;51.392;10.234;2023-04-08T00:42:16;98659.66;;;4.62;63.74
66880;BME280;53789;51.392;10.234;2023-04-08T00:42:36;98665.09;;;4.62;63.85
66880;BME280;53789;51.392;10.234;2023-04-08T00:42:56;98656.94;;;4.62;63.37
66880;BME280;53789;51.392;10.234;2023-04-08T00:43:17;98664.28;;;4.61;63.67
66880;BME280;53789;51.392;10.234;2023-04-08T00:43:37;98662.38;;;4.62;63.93
66880;BME280;53789;51.392;10.234;2023-04-08T00:43:57;98664.28;;;4.61;63.42
66880;BME280;53789;51.392;10.234;2023-04-08T00:44:18;98664.28;;;4.61;63.53
66880;BME280;53789;51.392;10.234;2023-04-08T00:44:38;98658.84;;;4.61;63.33
66880;BME280;53789;51.392;10.234;2023-04-08T00:44:58;98660.47;;;4.62;63.44
66880;BME280;53789;51.392;10.234;2023-04-08T00:45:19;98660.47;;;4.62;63.85
66880;BME280;53789;51.392;10.234;2023-04-08T00:45:39;98664.28;;;4.61;63.63
66880;BME280;53789;51.392;10.234;2023-04-08T00:45:59;98657.19;;;4.60;63.93
66880;BME280;53789;51.392;10.234;2023-04-08T00:46:20;98660.72;;;4.61;64.02
66880;BME280;53789;51.392;10.234;2023-04-08T00:46:40;98666.16;;;4.61;63.58
66880;BME280;53789;51.392;10.234;2023-04-08T00:47:02;98659.91;;;4.60;63.31
66880;BME280;53789;51.392;10.234;2023-04-08T00:47:23;98658.00;;;4.61;63.44
66880;BME280;53789;51.392;10.234;2023-04-08T00:47:43;98659.66;;;4.62;63.65
66880;BME280;53789;51.392;10.234;2023-04-08T00:48:04;98656.94;;;4.62;63.86
66880;BME280;53789;51.392;10.234;2023-04-08T00:48:24;98658.00;;;4.61;63.72
66880;BME280;53789;51.392;10.234;2023-04-08T00:48:45;98660.97;;;4.59;63.31
66880;BME280;53789;51.392;10.234;2023-04-08T00:49:06;98662.88;;;4.59;63.67
66880;BME280;53789;51.392;10.234;2023-04-08T00:49:26;98657.16;;;4.55;63.65
66880;BME280;53789;51.392;10.234;2023-04-08T00:49:46;98657.41;;;4.54;63.40
66880;BME280;53789;51.392;10.234;2023-04-08T00:50:08;98660.13;;;4.54;63.60
66880;BME280;53789;51.392;10.234;2023-04-08T00:50:28;98658.47;;;4.53;63.86
66880;BME280;53789;51.392;10.234;2023-04-08T00:50:49;98657.66;;;4.52;63.86
66880;BME280;53789;51.392;10.234;2023-04-08T00:51:09;98655.50;;;4.54;63.96
66880;BME280;53789;51.392;10.234;2023-04-08T00:51:30;98654.69;;;4.54;63.90
66880;BME280;53789;51.392;10.234;2023-04-08T00:51:50;98655.50;;;4.54;64.15
66880;BME280;53789;51.392;10.234;2023-04-08T00:52:10;98657.16;;;4.55;63.73
66880;BME280;53789;51.392;10.234;2023-04-08T00:52:31;98655.50;;;4.54;63.91
66880;BME280;53789;51.392;10.234;2023-04-08T00:52:51;98660.69;;;4.56;63.78
66880;BME280;53789;51.392;10.234;2023-04-08T00:53:17;98657.16;;;4.55;64.06
66880;BME280;53789;51.392;10.234;2023-04-08T00:53:37;98660.94;;;4.54;63.64
66880;BME280;53789;51.392;10.234;2023-04-08T00:53:58;98656.31;;;4.55;63.83
66880;BME280;53789;51.392;10.234;2023-04-08T00:54:19;98656.31;;;4.55;64.64
66880;BME280;53789;51.392;10.234;2023-04-08T00:54:40;98659.03;;;4.55;63.77
66880;BME280;53789;51.392;10.234;2023-04-08T00:55:01;98658.22;;;4.54;63.63
66880;BME280;53789;51.392;10.234;2023-04-08T00:55:21;98655.50;;;4.54;64.03
66880;BME280;53789;51.392;10.234;2023-04-08T00:55:42;98650.03;;;4.54;63.89
66880;BME280;53789;51.392;10.234;2023-04-08T00:56:02;98655.22;;;4.56;64.21
66880;BME280;53789;51.392;10.234;2023-04-08T00:56:23;98653.56;;;4.55;64.46
66880;BME280;53789;51.392;10.234;2023-04-08T00:56:44;98653.31;;;4.56;63.70
66880;BME280;53789;51.392;10.234;2023-04-08T00:57:05;98649.78;;;4.56;64.23
66880;BME280;53789;51.392;10.234;2023-04-08T00:57:25;98647.88;;;4.56;64.02
66880;BME280;53789;51.392;10.234;2023-04-08T00:57:47;98654.16;;;4.57;64.32
66880;BME280;53789;51.392;10.234;2023-04-08T00:58:07;98651.69;;;4.55;63.63
66880;BME280;53789;51.392;10.234;2023-04-08T00:58:28;98647.06;;;4.56;63.67
66880;BME280;53789;51.392;10.234;2023-04-08T00:58:50;98647.63;;;4.58;63.82
66880;BME280;53789;51.392;10.234;2023-04-08T00:59:11;98644.88;;;4.58;63.42
66880;BME280;53789;51.392;10.234;2023-04-08T00:59:32;98644.88;;;4.58;63.81
66880;BME280;53789;51.392;10.234;2023-04-08T00:59:52;98649.53;;;4.57;63.86
66880;BME280;53789;51.392;10.234;2023-04-08T01:00:14;98649.53;;;4.57;64.12
66880;BME280;53789;51.392;10.234;2023-04-08T01:00:39;98647.88;;;4.56;63.94
66880;BME280;53789;51.392;10.234;2023-04-08T01:01:21;98657.69;;;4.57;63.71
66880;BME280;53789;51.392;10.234;2023-04-08T01:02:13;98645.41;;;4.55;64.05
66880;BME280;53789;51.392;10.234;2023-04-08T01:03:30;98647.31;;;4.54;64.02
66880;BME280;53789;51.392;10.234;2023-04-08T01:04:06;98653.03;;;4.53;64.50
66880;BME280;53789;51.392;10.234;2023-04-08T01:04:43;98643.19;;;4.52;64.52
66880;BME280;53789;51.392;10.234;2023-04-08T01:05:08;98653.03;;;4.53;64.36
66880;BME280;53789;51.392;10.234;2023-04-08T01:06:21;98646.50;;;4.54;64.38
66880;BME280;53789;51.392;10.234;2023-04-08T01:07:01;98650.84;;;4.55;64.51
66880;BME280;53789;51.392;10.234;2023-04-08T01:07:27;98648.13;;;4.55;64.58
66880;BME280;53789;51.392;10.234;2023-04-08T01:07:49;98646.25;;;4.55;64.61
66880;BME280;53789;51.392;10.234;2023-04-08T01:08:10;98641.63;;;4.56;64.84
66880;BME280;53789;51.392;10.234;2023-04-08T01:08:34;98647.06;;;4.56;64.78
66880;BME280;53789;51.392;10.234;2023-04-08T01:08:58;98644.34;;;4.56;64.53
66880;BME280;53789;51.392;10.234;2023-04-08T01:09:24;98641.34;;;4.57;64.82
66880;BME280;53789;51.392;10.234;2023-04-08T01:10:01;98638.38;;;4.59;64.69
66880;BME280;53789;51.392;10.234;2023-04-08T01:10:28;98645.47;;;4.60;64.32
66880;BME280;53789;51.392;10.234;2023-04-08T01:10:53;98645.22;;;4.61;64.33
66880;BME280;53789;51.392;10.234;2023-04-08T01:11:17;98647.69;;;4.63;64.56
66880;BME280;53789;51.392;10.234;2023-04-08T01:11:42;98643.31;;;4.62;64.30
66880;BME280;53789;51.392;10.234;2023-04-08T01:12:07;98646.84;;;4.62;64.36
66880;BME280;53789;51.392;10.234;2023-04-08T01:12:31;98647.69;;;4.63;64.67
66880;BME280;53789;51.392;10.234;2023-04-08T01:13:03;98644.94;;;4.63;64.65
66880;BME280;53789;51.392;10.234;2023-04-08T01:13:25;98643.03;;;4.63;63.59
66880;BME280;53789;51.392;10.234;2023-04-08T01:13:50;98645.50;;;4.65;64.18
66880;BME280;53789;51.392;10.234;2023-04-08T01:14:20;98646.34;;;4.66;63.69
66880;BME280;53789;51.392;10.234;2023-04-08T01:14:44;98645.25;;;4.67;64.23
66880;BME280;53789;51.392;10.234;2023-04-08T01:15:08;98644.44;;;4.66;64.10
66880;BME280;53789;51.392;10.234;2023-04-08T01:15:34;98645.25;;;4.67;64.04
66880;BME280;53789;51.392;10.234;2023-04-08T01:15:56;98647.16;;;4.66;64.17
66880;BME280;53789;51.392;10.234;2023-04-08T01:16:18;98647.16;;;4.66;63.69
66880;BME280;53789;51.392;10.234;2023-04-08T01:16:40;98639.25;;;4.65;63.89
66880;BME280;53789;51.392;10.234;2023-04-08T01:17:01;98642.78;;;4.65;63.79
66880;BME280;53789;51.392;10.234;2023-04-08T01:17:22;98643.88;;;4.64;63.96
66880;BME280;53789;51.392;10.234;2023-04-08T01:17:44;98646.59;;;4.64;63.75
66880;BME280;53789;51.392;10.234;2023-04-08T01:18:09;98643.03;;;4.63;63.63
66880;BME280;53789;51.392;10.234;2023-04-08T01:18:32;98639.50;;;4.63;63.94
66880;BME280;53789;51.392;10.234;2023-04-08T01:18:55;98642.22;;;4.63;63.81
66880;BME280;53789;51.392;10.234;2023-04-08T01:19:29;98642.50;;;4.61;64.38
66880;BME280;53789;51.392;10.234;2023-04-08T01:19:53;98643.31;;;4.62;64.08
66880;BME280;53789;51.392;10.234;2023-04-08T01:20:16;98644.13;;;4.62;64.28
66880;BME280;53789;51.392;10.234;2023-04-08T01:20:41;98639.75;;;4.61;64.59
66880;BME280;53789;51.392;10.234;2023-04-08T01:21:03;98640.56;;;4.62;63.83
66880;BME280;53789;51.392;10.234;2023-04-08T01:21:25;98636.19;;;4.61;64.43
66880;BME280;53789;51.392;10.234;2023-04-08T01:21:47;98638.91;;;4.61;64.37
66880;BME280;53789;51.392;10.234;2023-04-08T01:22:33;98644.38;;;4.61;64.51
66880;BME280;53789;51.392;10.234;2023-04-08T01:23:31;98638.66;;;4.62;64.45
66880;BME280;53789;51.392;10.234;2023-04-08T01:24:28;98643.03;;;4.63;64.63
66880;BME280;53789;51.392;10.234;2023-04-08T01:24:58;98640.91;;;4.66;64.37
66880;BME280;53789;51.392;10.234;2023-04-08T01:25:53;98646.09;;;4.67;64.19
66880;BME280;53789;51.392;10.234;2023-04-08T01:26:21;98646.09;;;4.67;64.06
66880;BME280;53789;51.392;10.234;2023-04-08T01:26:44;98639.78;;;4.67;63.90
66880;BME280;53789;51.392;10.234;2023-04-08T01:27:06;98640.06;;;4.65;64.15
66880;BME280;53789;51.392;10.234;2023-04-08T01:27:31;98636.53;;;4.65;63.64
66880;BME280;53789;51.392;10.234;2023-04-08T01:27:55;98636.78;;;4.63;63.80
66880;BME280;53789;51.392;10.234;2023-04-08T01:28:18;98642.22;;;4.63;64.15
66880;BME280;53789;51.392;10.234;2023-04-08T01:28:39;98640.56;;;4.62;63.60
66880;BME280;53789;51.392;10.234;2023-04-08T01:29:02;98642.50;;;4.61;64.02
66880;BME280;53789;51.392;10.234;2023-04-08T01:29:25;98645.22;;;4.61;64.00
66880;BME280;53789;51.392;10.234;2023-04-08T01:29:47;98637.59;;;4.63;64.01
66880;BME280;53789;51.392;10.234;2023-04-08T01:30:09;98644.94;;;4.63;64.15
66880;BME280;53789;51.392;10.234;2023-04-08T01:30:32;98644.13;;;4.62;64.46
66880;BME280;53789;51.392;10.234;2023-04-08T01:30:56;98641.16;;;4.64;64.63
66880;BME280;53789;51.392;10.234;2023-04-08T01:31:18;98643.88;;;4.64;64.03
66880;BME280;53789;51.392;10.234;2023-04-08T01:31:41;98645.75;;;4.63;63.71
66880;BME280;53789;51.392;10.234;2023-04-08T01:32:04;98643.56;;;4.60;63.87
66880;BME280;53789;51.392;10.234;2023-04-08T01:32:28;98641.66;;;4.61;64.11
66880;BME280;53789;51.392;10.234;2023-04-08T01:32:53;98644.38;;;4.61;63.90
66880;BME280;53789;51.392;10.234;2023-04-08T01:33:16;98658.00;;;4.61;63.88
66880;BME280;53789;51.392;10.234;2023-04-08T01:33:37;98653.38;;;4.61;63.95
66880;BME280;53789;51.392;10.234;2023-04-08T01:34:01;98646.84;;;4.62;64.19
66880;BME280;53789;51.392;10.234;2023-04-08T01:34:24;98653.13;;;4.63;63.98
66880;BME280;53789;51.392;10.234;2023-04-08T01:34:45;98643.03;;;4.63;64.01
66880;BME280;53789;51.392;10.234;2023-04-08T01:35:06;98653.13;;;4.63;64.20
66880;BME280;53789;51.392;10.234;2023-04-08T01:35:29;98657.72;;;4.62;64.16
66880;BME280;53789;51.392;10.234;2023-04-08T01:35:55;98655.00;;;4.62;64.13
66880;BME280;53789;51.392;10.234;2023-04-08T01:36:17;98650.41;;;4.63;64.33
66880;BME280;53789;51.392;10.234;2023-04-08T01:36:41;98649.34;;;4.64;64.52
66880;BME280;53789;51.392;10.234;2023-04-08T01:37:05;98654.78;;;4.64;64.62
66880;BME280;53789;51.392;10.234;2023-04-08T01:37:27;98656.41;;;4.65;64.67
66880;BME280;53789;51.392;10.234;2023-04-08T01:37:50;98657.25;;;4.66;64.50
66880;BME280;53789;51.392;10.234;2023-04-08T01:38:15;98658.88;;;4.67;64.66
66880;BME280;53789;51.392;10.234;2023-04-08T01:38:37;98666.78;;;4.68;64.87
66880;BME280;53789;51.392;10.234;2023-04-08T01:39:02;98660.25;;;4.69;64.96
66880;BME280;53789;51.392;10.234;2023-04-08T01:39:25;98661.94;;;4.70;65.03
66880;BME280;53789;51.392;10.234;2023-04-08T01:39:48;98657.53;;;4.69;64.72
66880;BME280;53789;51.392;10.234;2023-04-08T01:40:10;98658.09;;;4.71;64.44
66880;BME280;53789;51.392;10.234;2023-04-08T01:40:32;98656.75;;;4.74;64.67
66880;BME280;53789;51.392;10.234;2023-04-08T01:40:55;98660.31;;;4.74;64.33
66880;BME280;53789;51.392;10.234;2023-04-08T01:41:17;98657.56;;;4.74;64.11
66880;BME280;53789;51.392;10.234;2023-04-08T01:41:39;98661.97;;;4.75;64.65
66880;BME280;53789;51.392;10.234;2023-04-08T01:42:00;98662.81;;;4.76;64.50
66880;BME280;53789;51.392;10.234;2023-04-08T01:42:27;98663.63;;;4.76;64.36
66880;BME280;53789;51.392;10.234;2023-04-08T01:42:54;98661.69;;;4.77;64.66
66880;BME280;53789;51.392;10.234;2023-04-08T01:43:16;98652.72;;;4.76;64.53
66880;BME280;53789;51.392;10.234;2023-04-08T01:43:42;98660.06;;;4.76;64.65
66880;BME280;53789;51.392;10.234;2023-04-08T01:44:03;98659.22;;;4.75;64.54
66880;BME280;53789;51.392;10.234;2023-04-08T01:44:25;98655.69;;;4.75;64.68
66880;BME280;53789;51.392;10.234;2023-04-08T01:44:47;98659.50;;;4.74;64.50
66880;BME280;53789;51.392;10.234;2023-04-08T01:45:08;98659.50;;;4.74;64.69
66880;BME280;53789;51.392;10.234;2023-04-08T01:45:29;98650.75;;;4.72;64.19
66880;BME280;53789;51.392;10.234;2023-04-08T01:45:52;98658.94;;;4.72;64.47
66880;BME280;53789;51.392;10.234;2023-04-08T01:46:14;98660.31;;;4.74;64.30
66880;BME280;53789;51.392;10.234;2023-04-08T01:46:35;98655.09;;;4.73;64.46
66880;BME280;53789;51.392;10.234;2023-04-08T01:46:57;98650.50;;;4.73;64.07
66880;BME280;53789;51.392;10.234;2023-04-08T01:47:18;98653.22;;;4.73;64.38
66880;BME280;53789;51.392;10.234;2023-04-08T01:47:38;98655.94;;;4.73;64.10
66880;BME280;53789;51.392;10.234;2023-04-08T01:48:01;98653.22;;;4.73;64.62
66880;BME280;53789;51.392;10.234;2023-04-08T01:48:23;98654.03;;;4.74;64.44
66880;BME280;53789;51.392;10.234;2023-04-08T01:48:44;98649.41;;;4.74;64.07
66880;BME280;53789;51.392;10.234;2023-04-08T01:49:06;98651.06;;;4.75;63.40
66880;BME280;53789;51.392;10.234;2023-04-08T01:49:29;98653.78;;;4.75;64.02
66880;BME280;53789;51.392;10.234;2023-04-08T01:49:51;98653.53;;;4.77;63.55
66880;BME280;53789;51.392;10.234;2023-04-08T01:50:13;98652.72;;;4.76;63.50
66880;BME280;53789;51.392;10.234;2023-04-08T01:50:35;98651.91;;;4.76;63.49
66880;BME280;53789;51.392;10.234;2023-04-08T01:50:57;98652.72;;;4.76;63.63
66880;BME280;53789;51.392;10.234;2023-04-08T01:51:21;98650.78;;;4.77;63.26
66880;BME280;53789;51.392;10.234;2023-04-08T01:51:44;98652.72;;;4.76;63.32
66880;BME280;53789;51.392;10.234;2023-04-08T01:52:08;98654.63;;;4.76;63.28
66880;BME280;53789;51.392;10.234;2023-04-08T01:52:29;98650.00;;;4.76;63.40
66880;BME280;53789;51.392;10.234;2023-04-08T01:52:52;98656.50;;;4.75;62.98
66880;BME280;53789;51.392;10.234;2023-04-08T01:53:13;98650.25;;;4.75;63.36
66880;BME280;53789;51.392;10.234;2023-04-08T01:53:33;98656.50;;;4.75;63.40
66880;BME280;53789;51.392;10.234;2023-04-08T01:53:54;98652.13;;;4.74;63.51
66880;BME280;53789;51.392;10.234;2023-04-08T01:54:14;98664.69;;;4.75;63.90
66880;BME280;53789;51.392;10.234;2023-04-08T01:54:35;98654.84;;;4.74;63.56
66880;BME280;53789;51.392;10.234;2023-04-08T01:54:55;98655.69;;;4.75;63.05
66880;BME280;53789;51.392;10.234;2023-04-08T01:55:16;98649.41;;;4.74;63.44
66880;BME280;53789;51.392;10.234;2023-04-08T01:55:40;98652.13;;;4.74;63.53
66880;BME280;53789;51.392;10.234;2023-04-08T01:56:06;98647.53;;;4.75;63.22
66880;BME280;53789;51.392;10.234;2023-04-08T01:56:32;98653.22;;;4.73;63.12
66880;BME280;53789;51.392;10.234;2023-04-08T01:56:57;98652.13;;;4.74;63.20
66880;BME280;53789;51.392;10.234;2023-04-08T01:57:27;98655.94;;;4.73;63.33
66880;BME280;53789;51.392;10.234;2023-04-08T01:57:53;98654.03;;;4.74;63.96
66880;BME280;53789;51.392;10.234;2023-04-08T01:58:20;98652.38;;;4.73;63.65
66880;BME280;53789;51.392;10.234;2023-04-08T01:58:48;98651.31;;;4.74;63.58
66880;BME280;53789;51.392;10.234;2023-04-08T01:59:13;98659.50;;;4.74;63.29
66880;BME280;53789;51.392;10.234;2023-04-08T01:59:37;98661.41;;;4.73;63.47
66880;BME280;53789;51.392;10.234;2023-04-08T02:00:01;98650.50;;;4.73;63.70
66880;BME280;53789;51.392;10.234;2023-04-08T02:00:30;98657.03;;;4.72;63.91
66880;BME280;53789;51.392;10.234;2023-04-08T02:00:53;98663.53;;;4.71;63.60